Valley Head, West Virginia
Current Conditions -  °F | °C
As of 12:51 AM on Sunday 21 Dec 2014 (Local Time) from KEKN Reporting Station
Unknown Precip Unknown Precip  
Wind Chill: 31°   Ceiling: 2300
Heat Index: 31°   Visibility: 10mi
Dew Point: 25°   Wind: 0mph
Humidity: 79%   Direction: NA
Pressure: 30.2"   Gusts: NA
Location:  38.55°N, 80.04°W
Report Text: KEKN 210551Z AUTO 00000KT 10SM UP OVC023 M01/M04 A3020 RMK AO2 UPB46 SLP252 P0000 60000 T10061039 11006 21006 58002 TSNO $
Loading
Personal Weather Stations






























Interactive Weather Map New forecast layout! Learn more

10-Day Weather Forecast

Advertisements
Track Severe Weather on mobile